Time;durP1;ratioP1;P1;durP2;ratioP2;P2;SDS_P1;SDS_P2;PMS_P1;PMS_P2;Temp;Humidity;BMP_temperature;BMP_pressure;BME280_temperature;BME280_humidity;BME280_pressure;Samples;Min_cycle;Max_cycle;Signal;HPM_P1;HPM_P2
2021/08/05 00:01:38;;;;;;;7.82;5.47;;;17.00;99.90;;;;;;5050500;28;20040;-75
2021/08/05 00:04:04;;;;;;;10.40;5.47;;;17.10;99.90;;;;;;5050711;28;20063;-73
2021/08/05 00:06:29;;;;;;;7.63;5.00;;;17.00;99.90;;;;;;5050637;28;20036;-73
2021/08/05 00:08:55;;;;;;;6.40;5.20;;;17.10;99.90;;;;;;5051174;28;20129;-74
2021/08/05 00:11:21;;;;;;;6.53;4.68;;;17.00;99.90;;;;;;5050569;28;20041;-74
2021/08/05 00:13:46;;;;;;;6.85;5.18;;;17.00;99.90;;;;;;5054601;28;20029;-74
2021/08/05 00:16:12;;;;;;;9.43;5.07;;;17.00;99.90;;;;;;5054672;28;20036;-73
2021/08/05 00:18:38;;;;;;;5.25;4.60;;;17.00;99.90;;;;;;5054663;28;20057;-74
2021/08/05 00:21:03;;;;;;;6.03;5.18;;;17.00;99.90;;;;;;5054916;28;20560;-74
2021/08/05 00:23:29;;;;;;;8.00;5.35;;;17.00;99.90;;;;;;5054965;28;20170;-73
2021/08/05 00:25:54;;;;;;;8.00;6.05;;;17.00;99.90;;;;;;5054395;28;20032;-74
2021/08/05 00:28:20;;;;;;;7.10;5.70;;;16.90;99.90;;;;;;5054440;28;20507;-74
2021/08/05 00:30:45;;;;;;;10.30;6.00;;;17.00;99.90;;;;;;5054132;28;20041;-76
2021/08/05 00:33:11;;;;;;;9.25;6.03;;;17.00;99.90;;;;;;5053239;28;20031;-74
2021/08/05 00:35:37;;;;;;;6.07;5.30;;;17.00;99.90;;;;;;5053981;28;20033;-74
2021/08/05 00:38:02;;;;;;;8.77;6.43;;;17.00;99.90;;;;;;5054566;28;20025;-74
2021/08/05 00:40:28;;;;;;;7.03;5.63;;;17.00;99.90;;;;;;5054216;28;20033;-74
2021/08/05 00:42:53;;;;;;;11.45;6.07;;;16.90;99.90;;;;;;5054335;28;20053;-75
2021/08/05 00:45:19;;;;;;;9.30;6.13;;;17.00;99.90;;;;;;5054182;28;20412;-75
2021/08/05 00:47:45;;;;;;;8.95;5.95;;;16.90;99.90;;;;;;5054730;28;20032;-75
2021/08/05 00:50:11;;;;;;;8.55;5.50;;;16.90;99.90;;;;;;5053969;28;20478;-74
2021/08/05 00:52:37;;;;;;;7.25;5.85;;;16.90;99.90;;;;;;5053965;28;20025;-74
2021/08/05 00:55:04;;;;;;;8.05;5.68;;;17.00;99.90;;;;;;5053942;28;20120;-74
2021/08/05 00:57:29;;;;;;;7.03;5.18;;;16.90;99.90;;;;;;5053672;28;20043;-73
2021/08/05 00:59:55;;;;;;;6.45;5.22;;;16.90;99.90;;;;;;5054386;28;20592;-75
2021/08/05 01:02:20;;;;;;;7.85;5.45;;;16.90;99.90;;;;;;5053953;28;20032;-74
2021/08/05 01:04:49;;;;;;;7.50;5.97;;;16.80;99.90;;;;;;5054171;28;20101;-75
2021/08/05 01:07:20;;;;;;;9.55;6.25;;;16.80;99.90;;;;;;5052599;28;20108;-74
2021/08/05 01:10:08;;;;;;;10.90;5.80;;;16.80;99.90;;;;;;5053672;28;20033;-74
2021/08/05 01:12:49;;;;;;;7.05;5.78;;;16.80;99.90;;;;;;5053886;28;20025;-74
2021/08/05 01:15:21;;;;;;;9.27;5.55;;;16.70;99.90;;;;;;5053726;28;20467;-73
2021/08/05 01:17:49;;;;;;;8.10;5.95;;;16.70;99.90;;;;;;5054280;28;20112;-74
2021/08/05 01:20:17;;;;;;;;;;;16.70;99.90;;;;;;5053985;28;20033;-74
2021/08/05 01:22:55;;;;;;;9.38;5.88;;;16.70;99.90;;;;;;5053006;28;19928;-74
2021/08/05 01:25:32;;;;;;;;;;;16.60;99.90;;;;;;5053798;28;20526;-73
2021/08/05 01:28:00;;;;;;;9.82;5.40;;;16.60;99.90;;;;;;5053318;28;19909;-74
2021/08/05 01:30:27;;;;;;;10.23;6.68;;;16.70;99.90;;;;;;5052757;28;20033;-74
2021/08/05 01:32:55;;;;;;;10.45;6.00;;;16.60;99.90;;;;;;5053797;28;20021;-74
2021/08/05 01:35:21;;;;;;;11.05;6.18;;;16.60;99.90;;;;;;5048668;28;20041;-74
2021/08/05 01:37:48;;;;;;;9.15;5.70;;;16.60;99.90;;;;;;5033417;28;20064;-74
2021/08/05 01:40:14;;;;;;;7.32;6.13;;;16.70;99.90;;;;;;5033188;28;20557;-74
2021/08/05 01:42:41;;;;;;;9.52;5.90;;;16.70;99.90;;;;;;5033470;28;20061;-74
2021/08/05 01:45:09;;;;;;;10.60;5.70;;;16.70;99.90;;;;;;5032719;28;20470;-74
2021/08/05 01:47:38;;;;;;;8.52;5.60;;;16.70;99.90;;;;;;5033330;28;20057;-75
2021/08/05 01:50:06;;;;;;;8.57;5.32;;;16.80;99.90;;;;;;5032229;28;20037;-74
2021/08/05 01:52:32;;;;;;;7.70;5.10;;;16.70;99.90;;;;;;5033064;28;20375;-73
2021/08/05 01:54:59;;;;;;;5.50;4.75;;;16.70;99.90;;;;;;5033119;28;20026;-73
2021/08/05 01:57:25;;;;;;;7.53;5.88;;;16.70;99.90;;;;;;5033147;28;20029;-74
2021/08/05 01:59:50;;;;;;;8.73;5.50;;;16.70;99.90;;;;;;5034468;28;20048;-73
2021/08/05 02:02:16;;;;;;;8.95;5.68;;;16.70;99.90;;;;;;5033632;28;20120;-74
2021/08/05 02:04:50;;;;;;;13.73;6.43;;;16.70;99.90;;;;;;5033074;28;20423;-74
2021/08/05 02:07:28;;;;;;;8.15;6.28;;;16.60;99.90;;;;;;5031735;28;20506;-73
2021/08/05 02:10:06;;;;;;;8.45;6.13;;;16.60;99.90;;;;;;5032624;28;20065;-73
2021/08/05 02:12:38;;;;;;;11.02;6.53;;;16.60;99.90;;;;;;5032533;28;20034;-73
2021/08/05 02:15:05;;;;;;;6.90;6.00;;;16.60;99.90;;;;;;5033685;28;20455;-74
2021/08/05 02:17:35;;;;;;;7.53;6.00;;;16.70;99.90;;;;;;5032650;28;20026;-74
2021/08/05 02:20:02;;;;;;;8.75;6.22;;;16.70;99.90;;;;;;5032676;28;20029;-74
2021/08/05 02:22:28;;;;;;;10.02;6.25;;;16.70;99.90;;;;;;5032476;28;20045;-74
2021/08/05 02:24:54;;;;;;;6.95;5.55;;;16.70;99.90;;;;;;5032461;28;20029;-74
2021/08/05 02:27:20;;;;;;;7.68;5.50;;;16.70;99.90;;;;;;5032331;28;20108;-74
2021/08/05 02:29:46;;;;;;;8.90;5.50;;;16.70;99.90;;;;;;5032701;28;20163;-73
2021/08/05 02:32:12;;;;;;;8.23;6.03;;;16.60;99.90;;;;;;5032459;28;20040;-72
2021/08/05 02:34:38;;;;;;;9.43;6.28;;;16.60;99.90;;;;;;5031684;28;20041;-74
2021/08/05 02:37:04;;;;;;;12.05;6.20;;;16.70;99.90;;;;;;5031208;28;20427;-74
2021/08/05 02:39:31;;;;;;;8.38;5.85;;;16.70;99.90;;;;;;5032263;28;20029;-73
2021/08/05 02:41:58;;;;;;;14.55;6.88;;;16.70;99.90;;;;;;5031672;28;20029;-75
2021/08/05 02:44:24;;;;;;;7.07;5.93;;;16.60;99.90;;;;;;5032165;28;20032;-74
2021/08/05 02:46:50;;;;;;;9.05;6.78;;;16.60;99.90;;;;;;5030854;28;20491;-73
2021/08/05 02:49:17;;;;;;;8.00;6.93;;;16.60;99.90;;;;;;5030883;28;20038;-74
2021/08/05 02:51:45;;;;;;;9.98;6.53;;;16.60;99.90;;;;;;5031760;28;20033;-74
2021/08/05 02:54:11;;;;;;;10.15;6.00;;;16.60;99.90;;;;;;5031962;28;20417;-74
2021/08/05 02:56:39;;;;;;;8.23;6.75;;;16.50;99.90;;;;;;5031203;28;20013;-73
2021/08/05 02:59:05;;;;;;;;;;;16.50;99.90;;;;;;5031178;28;20395;-74
2021/08/05 03:01:30;;;;;;;6.95;6.07;;;16.60;99.90;;;;;;5031793;28;19924;-73
2021/08/05 03:03:56;;;;;;;14.13;6.70;;;16.50;99.90;;;;;;5031898;28;20080;-74
2021/08/05 03:06:27;;;;;;;8.50;6.15;;;16.50;99.90;;;;;;5031604;28;20083;-73
2021/08/05 03:08:53;;;;;;;11.48;6.80;;;16.50;99.90;;;;;;5032100;28;20491;-73
2021/08/05 03:11:19;;;;;;;9.82;5.80;;;16.40;99.90;;;;;;5031575;28;20121;-74
2021/08/05 03:13:44;;;;;;;13.77;6.65;;;16.50;99.90;;;;;;5031488;28;20515;-73
2021/08/05 03:16:11;;;;;;;14.43;6.85;;;16.50;99.90;;;;;;5031393;28;20041;-73
2021/08/05 03:18:37;;;;;;;9.60;5.97;;;16.60;99.90;;;;;;5031449;28;20030;-75
2021/08/05 03:21:03;;;;;;;11.45;6.88;;;16.60;99.90;;;;;;5031879;28;20032;-74
2021/08/05 03:23:28;;;;;;;11.23;7.18;;;16.50;99.90;;;;;;5031193;28;20247;-74
2021/08/05 03:25:54;;;;;;;10.35;7.20;;;16.50;99.90;;;;;;5031302;28;20056;-74
2021/08/05 03:28:20;;;;;;;10.20;6.50;;;16.50;99.90;;;;;;5031230;28;20033;-73
2021/08/05 03:30:45;;;;;;;9.65;6.78;;;16.40;99.90;;;;;;5029782;28;20478;-73
2021/08/05 03:33:11;;;;;;;9.68;7.15;;;16.40;99.90;;;;;;5031422;28;20059;-75
2021/08/05 03:35:37;;;;;;;8.70;6.68;;;16.50;99.90;;;;;;5031798;28;20029;-74
2021/08/05 03:38:03;;;;;;;8.23;6.75;;;16.50;99.90;;;;;;5031421;28;20034;-74
2021/08/05 03:40:28;;;;;;;13.05;7.28;;;16.50;99.90;;;;;;5031226;28;20363;-74
2021/08/05 03:42:54;;;;;;;13.40;7.93;;;16.50;99.90;;;;;;5030135;28;20034;-75
2021/08/05 03:45:19;;;;;;;8.80;7.13;;;16.50;99.90;;;;;;5030976;28;20030;-75
2021/08/05 03:47:45;;;;;;;10.90;6.95;;;16.50;99.90;;;;;;5031479;28;20017;-73
2021/08/05 03:50:11;;;;;;;9.10;6.65;;;16.50;99.90;;;;;;5031020;28;20099;-74
2021/08/05 03:52:36;;;;;;;9.13;7.13;;;16.50;99.90;;;;;;5030924;28;20471;-74
2021/08/05 03:55:06;;;;;;;15.40;7.60;;;16.60;99.90;;;;;;5030749;28;20038;-74
2021/08/05 03:57:31;;;;;;;9.38;6.47;;;16.60;99.90;;;;;;5030885;28;20133;-74
2021/08/05 03:59:57;;;;;;;8.15;6.65;;;16.60;99.90;;;;;;5031272;28;20100;-74
2021/08/05 04:02:23;;;;;;;10.05;7.13;;;16.60;99.90;;;;;;5029685;28;20026;-74
2021/08/05 04:04:48;;;;;;;12.50;7.60;;;16.50;99.90;;;;;;5030817;28;20093;-75
2021/08/05 04:07:14;;;;;;;14.45;7.95;;;16.60;99.90;;;;;;5030755;28;20387;-73
2021/08/05 04:09:39;;;;;;;14.23;7.75;;;16.60;99.90;;;;;;5031960;28;20026;-74
2021/08/05 04:12:05;;;;;;;12.73;8.45;;;16.60;99.90;;;;;;5031191;28;20782;-75
2021/08/05 04:14:31;;;;;;;12.52;7.97;;;16.70;99.90;;;;;;5031074;28;20384;-75
2021/08/05 04:16:57;;;;;;;11.25;7.63;;;16.70;99.90;;;;;;5030920;28;20025;-74
2021/08/05 04:19:26;;;;;;;14.35;8.57;;;16.60;99.90;;;;;;5029647;28;20036;-74
2021/08/05 04:21:53;;;;;;;12.30;8.60;;;16.70;99.90;;;;;;5030350;28;20025;-74
2021/08/05 04:24:19;;;;;;;11.38;8.15;;;16.70;99.90;;;;;;5029877;28;20071;-73
2021/08/05 04:26:44;;;;;;;8.70;7.80;;;16.70;99.90;;;;;;5030839;28;20061;-73
2021/08/05 04:29:10;;;;;;;13.30;8.35;;;16.70;99.90;;;;;;5030595;28;20029;-74
2021/08/05 04:31:35;;;;;;;12.50;7.65;;;16.70;99.90;;;;;;5030662;28;20038;-73
2021/08/05 04:34:01;;;;;;;10.93;8.05;;;16.60;99.90;;;;;;5030620;28;20351;-74
2021/08/05 04:36:26;;;;;;;13.93;8.73;;;16.70;99.90;;;;;;5030421;28;20022;-75
2021/08/05 04:38:52;;;;;;;9.63;8.07;;;16.70;99.90;;;;;;5030882;28;20455;-74
2021/08/05 04:41:17;;;;;;;12.60;8.90;;;16.70;99.90;;;;;;5029320;28;20459;-74
2021/08/05 04:43:43;;;;;;;15.52;8.82;;;16.80;99.90;;;;;;5030431;28;20029;-73
2021/08/05 04:46:09;;;;;;;13.70;8.75;;;16.80;99.90;;;;;;5029365;28;20379;-74
2021/08/05 04:48:34;;;;;;;11.35;8.63;;;16.90;99.90;;;;;;5030168;28;20026;-75
2021/08/05 04:51:00;;;;;;;15.00;8.43;;;16.90;99.90;;;;;;5030714;28;20029;-73
2021/08/05 04:53:26;;;;;;;14.05;9.02;;;16.90;99.90;;;;;;5030152;28;20034;-73
2021/08/05 04:55:51;;;;;;;16.60;9.25;;;16.80;99.90;;;;;;5030326;28;20064;-74
2021/08/05 04:58:17;;;;;;;11.68;8.68;;;16.80;99.90;;;;;;5031538;28;20025;-74
2021/08/05 05:00:43;;;;;;;18.80;9.13;;;16.90;99.90;;;;;;5034005;28;20313;-75
2021/08/05 05:03:09;;;;;;;15.20;9.13;;;17.00;99.90;;;;;;5034193;28;20125;-74
2021/08/05 05:05:36;;;;;;;12.05;8.52;;;17.00;99.90;;;;;;5034526;28;20113;-74
2021/08/05 05:08:13;;;;;;;12.32;9.07;;;17.00;99.90;;;;;;5033888;28;20030;-73
2021/08/05 05:10:38;;;;;;;11.90;9.48;;;17.00;99.90;;;;;;5033713;28;20557;-73
2021/08/05 05:13:04;;;;;;;11.43;8.60;;;17.00;99.90;;;;;;5033821;28;20057;-74
2021/08/05 05:15:29;;;;;;;15.02;8.70;;;17.00;99.90;;;;;;5033632;28;20376;-73
2021/08/05 05:17:55;;;;;;;11.68;9.88;;;17.00;99.90;;;;;;5033062;28;20507;-74
2021/08/05 05:20:21;;;;;;;13.02;8.98;;;17.00;99.90;;;;;;5033680;28;20029;-76
2021/08/05 05:22:46;;;;;;;13.77;10.27;;;17.10;99.90;;;;;;5033271;28;20107;-73
2021/08/05 05:25:12;;;;;;;11.38;9.23;;;17.00;99.90;;;;;;5033257;28;20053;-75
2021/08/05 05:27:40;;;;;;;16.02;9.00;;;17.00;99.90;;;;;;5033439;28;20029;-73
2021/08/05 05:30:07;;;;;;;12.50;8.98;;;17.10;99.90;;;;;;5034256;28;20207;-74
2021/08/05 05:32:32;;;;;;;13.90;8.73;;;17.10;99.90;;;;;;5033557;28;20080;-74
2021/08/05 05:34:58;;;;;;;12.13;9.27;;;17.10;99.90;;;;;;5033350;28;20048;-74
2021/08/05 05:37:25;;;;;;;14.32;9.10;;;17.10;99.90;;;;;;5032280;28;20099;-74
2021/08/05 05:39:52;;;;;;;11.88;8.80;;;17.20;99.90;;;;;;5033311;28;20037;-74
2021/08/05 05:42:18;;;;;;;13.77;9.52;;;17.20;99.90;;;;;;5033178;28;20489;-74
2021/08/05 05:44:44;;;;;;;13.50;8.77;;;17.20;99.90;;;;;;5033714;28;20034;-74
2021/08/05 05:47:09;;;;;;;12.73;8.70;;;17.20;99.90;;;;;;5032014;28;20395;-75
2021/08/05 05:49:35;;;;;;;13.27;9.07;;;17.20;99.90;;;;;;5031868;28;20112;-74
2021/08/05 05:52:01;;;;;;;13.05;9.05;;;17.20;99.90;;;;;;5032857;28;20045;-74
2021/08/05 05:54:26;;;;;;;10.63;8.80;;;17.20;99.90;;;;;;5032755;28;20029;-75
2021/08/05 05:56:52;;;;;;;10.68;8.82;;;17.30;99.90;;;;;;5033085;28;20047;-75
2021/08/05 05:59:18;;;;;;;12.20;9.27;;;17.30;99.90;;;;;;5032811;28;20068;-75
2021/08/05 06:01:43;;;;;;;13.13;8.98;;;17.30;99.90;;;;;;5032584;28;20040;-74
2021/08/05 06:04:09;;;;;;;12.13;8.80;;;17.30;99.90;;;;;;5033020;28;20041;-74
2021/08/05 06:06:34;;;;;;;16.65;9.73;;;17.30;99.90;;;;;;5031831;28;20091;-74
2021/08/05 06:09:02;;;;;;;15.98;9.93;;;17.30;99.90;;;;;;5031374;28;20060;-74
2021/08/05 06:11:28;;;;;;;12.55;9.30;;;17.30;99.90;;;;;;5031892;28;20030;-74
2021/08/05 06:13:54;;;;;;;16.90;9.60;;;17.40;99.90;;;;;;5032618;28;20030;-73
2021/08/05 06:16:21;;;;;;;15.30;9.50;;;17.40;99.90;;;;;;5031707;28;20037;-75
2021/08/05 06:18:46;;;;;;;16.52;10.25;;;17.30;99.90;;;;;;5033222;28;20045;-75
2021/08/05 06:21:12;;;;;;;13.95;10.65;;;17.40;99.90;;;;;;5032268;28;20025;-74
2021/08/05 06:23:38;;;;;;;17.50;9.55;;;17.40;99.90;;;;;;5031452;28;20136;-72
2021/08/05 06:26:03;;;;;;;20.80;13.50;;;17.40;99.90;;;;;;5032167;28;20067;-75
2021/08/05 06:28:33;;;;;;;14.13;10.50;;;17.50;99.90;;;;;;5032367;28;20176;-73
2021/08/05 06:30:58;;;;;;;16.77;9.55;;;17.40;99.90;;;;;;5031934;28;20042;-73
2021/08/05 06:33:24;;;;;;;17.60;10.07;;;17.50;99.90;;;;;;5032166;28;20026;-73
2021/08/05 06:35:49;;;;;;;16.17;9.95;;;17.50;99.90;;;;;;5032385;28;20032;-74
2021/08/05 06:38:16;;;;;;;17.27;11.00;;;17.50;99.90;;;;;;5031994;28;20056;-73
2021/08/05 06:40:42;;;;;;;13.60;9.98;;;17.50;99.90;;;;;;5031843;28;20029;-74
2021/08/05 06:43:07;;;;;;;14.30;10.15;;;17.50;99.90;;;;;;5031951;28;20030;-73
2021/08/05 06:45:33;;;;;;;16.92;10.07;;;17.50;99.90;;;;;;5031657;28;20041;-73
2021/08/05 06:47:58;;;;;;;19.73;10.70;;;17.50;99.90;;;;;;5032403;28;20450;-74
2021/08/05 06:50:24;;;;;;;15.45;10.32;;;17.50;99.90;;;;;;5031655;28;20032;-74
2021/08/05 06:52:51;;;;;;;15.93;11.00;;;17.50;99.90;;;;;;5030808;28;20129;-74
2021/08/05 06:55:16;;;;;;;19.30;11.10;;;17.50;99.90;;;;;;5031544;28;20039;-74
2021/08/05 06:57:42;;;;;;;14.15;10.32;;;17.50;99.90;;;;;;5031602;28;20116;-74
2021/08/05 07:00:08;;;;;;;20.90;11.18;;;17.60;99.90;;;;;;5031865;28;20025;-74
2021/08/05 07:02:34;;;;;;;17.15;11.00;;;17.50;99.90;;;;;;5031761;28;20029;-74
2021/08/05 07:05:04;;;;;;;21.73;12.00;;;17.50;99.90;;;;;;5031829;28;20371;-74
2021/08/05 07:07:30;;;;;;;20.60;11.73;;;17.60;99.90;;;;;;5030509;28;20080;-73
2021/08/05 07:09:57;;;;;;;13.98;10.38;;;17.60;99.90;;;;;;5030351;28;20511;-74
2021/08/05 07:12:23;;;;;;;18.58;10.80;;;17.70;99.90;;;;;;5031337;28;20025;-74
2021/08/05 07:14:48;;;;;;;19.02;10.35;;;17.70;99.90;;;;;;5030739;28;20056;-73
2021/08/05 07:17:15;;;;;;;15.40;11.38;;;17.80;99.90;;;;;;5030256;28;20069;-75
2021/08/05 07:19:42;;;;;;;25.10;12.00;;;17.80;99.90;;;;;;5031236;28;20033;-75
2021/08/05 07:22:08;;;;;;;17.08;10.70;;;17.90;99.90;;;;;;5030801;28;20058;-73
2021/08/05 07:24:33;;;;;;;14.30;10.60;;;17.90;99.90;;;;;;5029949;28;20037;-75
2021/08/05 07:26:59;;;;;;;14.43;10.52;;;17.90;99.90;;;;;;5031715;28;20036;-74
2021/08/05 07:29:25;;;;;;;15.60;11.38;;;18.00;99.90;;;;;;5031073;28;20037;-73
2021/08/05 07:31:50;;;;;;;20.80;10.90;;;18.00;99.90;;;;;;5030998;28;20037;-73
2021/08/05 07:34:16;;;;;;;25.85;12.30;;;18.00;99.90;;;;;;5031116;28;20458;-75
2021/08/05 07:36:41;;;;;;;21.05;11.23;;;18.00;99.90;;;;;;5030702;28;20187;-75
2021/08/05 07:39:11;;;;;;;19.17;11.10;;;18.00;99.90;;;;;;5031213;28;20040;-74
2021/08/05 07:41:37;;;;;;;18.05;10.60;;;18.10;99.90;;;;;;5030928;28;20064;-74
2021/08/05 07:44:03;;;;;;;15.48;10.90;;;18.10;99.90;;;;;;5031199;28;20036;-75
2021/08/05 07:46:29;;;;;;;20.08;11.38;;;18.10;99.90;;;;;;5030988;28;20676;-73
2021/08/05 07:48:55;;;;;;;15.75;9.80;;;18.20;99.90;;;;;;5030718;28;20053;-74
2021/08/05 07:51:20;;;;;;;16.38;10.65;;;18.20;99.90;;;;;;5030611;28;20030;-74
2021/08/05 07:53:46;;;;;;;14.20;10.05;;;18.20;99.90;;;;;;5031226;28;20041;-74
2021/08/05 07:56:12;;;;;;;15.40;10.07;;;18.20;99.90;;;;;;5030336;28;20034;-74
2021/08/05 07:58:37;;;;;;;13.90;10.23;;;18.30;99.90;;;;;;5030670;28;20108;-73
2021/08/05 08:01:04;;;;;;;18.52;10.07;;;18.30;99.90;;;;;;5030654;28;20427;-76
2021/08/05 08:03:29;;;;;;;17.17;10.82;;;18.30;99.90;;;;;;5030382;28;20033;-73
2021/08/05 08:05:55;;;;;;;12.52;9.85;;;18.30;99.90;;;;;;5031053;28;20450;-73
2021/08/05 08:08:21;;;;;;;16.85;10.65;;;18.30;99.90;;;;;;5030807;28;20047;-75
2021/08/05 08:10:47;;;;;;;17.55;10.52;;;18.30;99.90;;;;;;5030194;28;20084;-73
2021/08/05 08:13:13;;;;;;;19.85;11.45;;;18.40;99.90;;;;;;5030625;28;20034;-75
2021/08/05 08:15:38;;;;;;;18.63;10.65;;;18.50;99.90;;;;;;5030641;28;20132;-73
2021/08/05 08:18:04;;;;;;;19.38;11.18;;;18.50;99.90;;;;;;5030990;28;20036;-74
2021/08/05 08:20:31;;;;;;;16.08;11.35;;;18.50;99.90;;;;;;5030609;28;20045;-73
2021/08/05 08:22:57;;;;;;;18.08;11.65;;;18.60;99.90;;;;;;5029309;28;20376;-73
2021/08/05 08:25:22;;;;;;;15.88;10.77;;;18.60;99.90;;;;;;5029285;28;20105;-74
2021/08/05 08:27:48;;;;;;;19.48;11.40;;;18.60;99.90;;;;;;5030730;28;20103;-74
2021/08/05 08:30:14;;;;;;;13.90;10.88;;;18.60;99.90;;;;;;5029223;28;20091;-75
2021/08/05 08:32:41;;;;;;;14.13;10.73;;;18.60;99.90;;;;;;5030184;28;20026;-73
2021/08/05 08:35:07;;;;;;;13.20;10.82;;;18.70;99.90;;;;;;5034473;28;20047;-74
2021/08/05 08:37:33;;;;;;;19.77;11.43;;;18.60;99.90;;;;;;5034202;28;20463;-73
2021/08/05 08:39:59;;;;;;;17.80;11.27;;;18.60;99.90;;;;;;5034056;28;20048;-74
2021/08/05 08:42:25;;;;;;;21.67;11.60;;;18.70;99.90;;;;;;5032857;28;20030;-74
2021/08/05 08:44:51;;;;;;;20.42;12.20;;;18.70;99.90;;;;;;5034316;28;20021;-74
2021/08/05 08:47:20;;;;;;;15.13;12.18;;;18.70;99.90;;;;;;5034335;28;20041;-74
2021/08/05 08:49:49;;;;;;;19.70;12.65;;;18.80;99.90;;;;;;5034001;28;20034;-73
2021/08/05 08:52:15;;;;;;;23.55;12.45;;;18.90;99.90;;;;;;5033824;28;20033;-74
2021/08/05 08:54:44;;;;;;;19.13;14.35;;;19.00;99.90;;;;;;5032669;28;20029;-74
2021/08/05 08:57:12;;;;;;;23.35;13.85;;;19.00;99.90;;;;;;5034016;28;20120;-75
2021/08/05 08:59:40;;;;;;;20.63;12.10;;;19.10;99.90;;;;;;5032853;28;20140;-74
2021/08/05 09:02:06;;;;;;;19.80;12.27;;;19.20;99.90;;;;;;5033946;28;20030;-73
2021/08/05 09:04:34;;;;;;;27.25;17.67;;;19.20;99.90;;;;;;5033955;28;20036;-74
2021/08/05 09:06:59;;;;;;;23.73;14.45;;;19.30;99.90;;;;;;5033728;28;20566;-74
2021/08/05 09:09:25;;;;;;;20.15;13.05;;;19.40;99.90;;;;;;5032762;28;20026;-73
2021/08/05 09:11:50;;;;;;;19.00;12.52;;;19.50;99.90;;;;;;5033031;28;20025;-74
2021/08/05 09:14:49;;;;;;;25.38;15.13;;;19.70;99.90;;;;;;5033536;28;20094;-74
2021/08/05 09:17:30;;;;;;;24.27;13.05;;;19.80;99.90;;;;;;5033360;28;20032;-74
2021/08/05 09:19:59;;;;;;;19.42;13.85;;;19.90;99.90;;;;;;5033371;28;20068;-73
2021/08/05 09:22:36;;;;;;;19.65;12.95;;;20.10;99.90;;;;;;5033285;28;20121;-74
2021/08/05 09:25:25;;;;;;;23.30;12.45;;;20.30;99.90;;;;;;5032347;28;20045;-74
2021/08/05 09:27:54;;;;;;;16.80;12.73;;;20.40;99.70;;;;;;5033578;28;20425;-73
2021/08/05 09:30:38;;;;;;;16.60;12.50;;;20.60;99.70;;;;;;5034111;28;20079;-73
2021/08/05 09:33:15;;;;;;;19.10;13.75;;;20.70;99.10;;;;;;5033722;28;20024;-74
2021/08/05 09:35:43;;;;;;;20.60;13.90;;;20.80;98.50;;;;;;5032215;28;20036;-74
2021/08/05 09:38:26;;;;;;;20.85;12.73;;;20.90;98.80;;;;;;5033244;28;20657;-74
2021/08/05 09:41:07;;;;;;;16.70;12.93;;;21.10;98.80;;;;;;5032165;28;20076;-74
2021/08/05 09:43:32;;;;;;;18.17;12.27;;;21.20;98.70;;;;;;5033074;28;20168;-72
2021/08/05 09:45:58;;;;;;;15.45;11.77;;;21.40;98.60;;;;;;5033232;28;20091;-74
2021/08/05 09:48:53;;;;;;;16.17;10.95;;;21.70;98.60;;;;;;5033288;28;20475;-72
2021/08/05 09:51:19;;;;;;;19.17;11.05;;;21.80;98.10;;;;;;5032270;28;20147;-73
2021/08/05 09:53:53;;;;;;;11.88;10.07;;;22.00;98.40;;;;;;5033262;28;20451;-73
2021/08/05 09:56:19;;;;;;;13.00;10.50;;;22.20;97.40;;;;;;5032885;28;20029;-74
2021/08/05 09:58:45;;;;;;;18.60;11.45;;;22.30;96.90;;;;;;5032565;28;20030;-74
2021/08/05 10:01:10;;;;;;;15.60;10.50;;;22.50;97.10;;;;;;5032757;28;20107;-73
2021/08/05 10:03:38;;;;;;;13.13;9.98;;;22.60;96.60;;;;;;5032855;28;20041;-73
2021/08/05 10:06:06;;;;;;;16.35;10.70;;;22.70;96.30;;;;;;5033478;28;20029;-75
2021/08/05 10:08:37;;;;;;;12.73;10.38;;;22.80;96.30;;;;;;5032777;28;20034;-73
2021/08/05 10:11:04;;;;;;;19.15;12.05;;;22.90;95.80;;;;;;5032439;28;20029;-74
2021/08/05 10:13:35;;;;;;;16.13;11.45;;;22.90;95.60;;;;;;5032614;28;20121;-74
2021/08/05 10:16:06;;;;;;;16.48;11.27;;;22.90;95.80;;;;;;5032392;28;20044;-72
2021/08/05 10:18:34;;;;;;;15.73;11.55;;;23.00;95.70;;;;;;5032728;28;20052;-73
2021/08/05 10:21:00;;;;;;;;;;;23.00;95.60;;;;;;5033482;28;20029;-73
2021/08/05 10:23:28;;;;;;;15.63;10.75;;;23.20;95.60;;;;;;5032117;28;19955;-75
2021/08/05 10:26:00;;;;;;;14.65;11.35;;;23.40;95.30;;;;;;5032157;28;20044;-75
2021/08/05 10:28:27;;;;;;;15.23;10.38;;;23.50;94.70;;;;;;5032268;28;20121;-73
2021/08/05 10:30:54;;;;;;;15.63;9.90;;;23.50;94.60;;;;;;5032324;28;20108;-74
2021/08/05 10:33:21;;;;;;;26.47;11.57;;;23.40;94.30;;;;;;5032178;28;20108;-74
2021/08/05 10:35:48;;;;;;;13.98;11.43;;;23.30;94.10;;;;;;5032665;28;20254;-74
2021/08/05 10:38:19;;;;;;;14.77;10.82;;;23.10;94.10;;;;;;5032215;28;20060;-74
2021/08/05 10:40:45;;;;;;;12.40;10.40;;;23.10;94.40;;;;;;5030990;28;20546;-73
2021/08/05 10:43:11;;;;;;;16.63;11.95;;;22.90;94.50;;;;;;5032219;28;20107;-74
2021/08/05 10:45:37;;;;;;;17.15;11.60;;;22.80;94.70;;;;;;5031981;28;20029;-75
2021/08/05 10:48:03;;;;;;;17.85;12.10;;;22.80;95.00;;;;;;5031639;28;20432;-73
2021/08/05 10:50:29;;;;;;;15.10;11.55;;;22.60;95.10;;;;;;5031981;28;20396;-73
2021/08/05 10:52:55;;;;;;;15.88;11.60;;;22.50;95.30;;;;;;5032180;28;20451;-74
2021/08/05 10:55:22;;;;;;;16.83;11.07;;;22.50;95.20;;;;;;5031361;28;20125;-74
2021/08/05 10:58:36;;;;;;;11.75;9.57;;;22.50;95.40;;;;;;5031832;28;20455;-73
2021/08/05 11:01:04;;;;;;;13.68;9.70;;;22.40;95.10;;;;;;5026137;28;20375;-73
2021/08/05 11:03:35;;;;;;;14.07;10.18;;;22.20;94.90;;;;;;5031367;28;20025;-73
2021/08/05 11:06:03;;;;;;;15.50;12.00;;;22.20;95.30;;;;;;5032158;28;20072;-73
2021/08/05 11:08:30;;;;;;;21.23;15.90;;;22.20;95.40;;;;;;5031466;28;20741;-73
2021/08/05 11:11:20;;;;;;;15.90;10.93;;;22.30;95.50;;;;;;5031357;28;20033;-75
2021/08/05 11:13:58;;;;;;;13.77;10.52;;;22.40;95.30;;;;;;5031541;28;20510;-74
2021/08/05 11:17:01;;;;;;;12.52;9.70;;;22.50;95.10;;;;;;5030274;28;20693;-73
2021/08/05 11:19:38;;;;;;;20.70;12.25;;;22.40;95.00;;;;;;5031401;28;20109;-74
2021/08/05 11:22:29;;;;;;;16.20;14.17;;;22.60;95.20;;;;;;5031420;28;20048;-74
2021/08/05 11:24:54;;;;;;;16.85;13.77;;;22.80;94.80;;;;;;5030245;28;20258;-74
2021/08/05 11:27:22;;;;;;;23.15;16.30;;;23.00;95.00;;;;;;5031283;28;20033;-74
2021/08/05 11:29:49;;;;;;;20.75;15.32;;;23.10;94.70;;;;;;5031520;28;20029;-74
2021/08/05 11:32:21;;;;;;;20.42;14.80;;;22.90;94.60;;;;;;5031168;28;20087;-75
2021/08/05 11:35:07;;;;;;;22.33;14.68;;;23.20;95.00;;;;;;5031125;28;20036;-75
2021/08/05 11:37:35;;;;;;;18.85;14.68;;;23.40;94.60;;;;;;5031204;28;20091;-74
2021/08/05 11:40:05;;;;;;;23.13;15.07;;;23.60;94.50;;;;;;5031018;28;20483;-74
2021/08/05 11:42:31;;;;;;;17.20;14.27;;;23.70;94.30;;;;;;5031094;28;20126;-74
2021/08/05 11:44:58;;;;;;;19.05;15.20;;;23.70;93.80;;;;;;5031528;28;20021;-74
2021/08/05 11:47:23;;;;;;;18.38;13.65;;;23.60;93.90;;;;;;5029709;28;20033;-73
2021/08/05 11:50:18;;;;;;;18.60;14.10;;;23.80;94.00;;;;;;5030954;28;20091;-74
2021/08/05 11:52:49;;;;;;;17.77;13.50;;;23.90;93.70;;;;;;5030791;28;20054;-74
2021/08/05 11:55:17;;;;;;;19.92;14.40;;;24.20;93.70;;;;;;5030871;28;20487;-74
2021/08/05 11:57:46;;;;;;;18.00;13.55;;;24.30;93.30;;;;;;5030716;28;20029;-73
2021/08/05 12:00:13;;;;;;;18.05;13.60;;;24.20;93.40;;;;;;5031090;28;20040;-74
2021/08/05 12:02:40;;;;;;;23.23;14.55;;;24.10;93.10;;;;;;5030690;28;20079;-73
2021/08/05 12:05:07;;;;;;;17.83;13.02;;;24.20;93.30;;;;;;5030971;28;20029;-74
2021/08/05 12:07:35;;;;;;;17.40;11.75;;;24.40;93.00;;;;;;5029442;28;20037;-74
2021/08/05 12:10:12;;;;;;;14.57;12.57;;;24.60;92.90;;;;;;5030384;28;20076;-74
2021/08/05 12:12:44;;;;;;;16.08;14.32;;;24.70;92.50;;;;;;5030483;28;20041;-74
2021/08/05 12:15:14;;;;;;;16.48;13.60;;;24.80;92.10;;;;;;5030828;28;20498;-73
2021/08/05 12:17:43;;;;;;;16.33;13.40;;;24.80;91.90;;;;;;5030560;28;20072;-72
2021/08/05 12:20:12;;;;;;;18.52;13.75;;;24.60;91.60;;;;;;5030510;28;20467;-74
2021/08/05 12:22:44;;;;;;;14.27;11.85;;;24.60;91.80;;;;;;5030210;28;20123;-74
2021/08/05 12:25:29;;;;;;;13.60;12.18;;;24.50;91.90;;;;;;5030539;28;20034;-74
2021/08/05 12:27:58;;;;;;;14.57;12.93;;;24.40;91.70;;;;;;5030026;28;20033;-73
2021/08/05 12:30:36;;;;;;;15.57;11.52;;;24.40;91.90;;;;;;5030533;28;20033;-75
2021/08/05 12:33:06;;;;;;;;;;;24.30;92.00;;;;;;5031491;28;20355;-74
2021/08/05 12:35:32;;;;;;;17.27;11.90;;;24.30;92.20;;;;;;5031326;28;19913;-74
2021/08/05 12:38:10;;;;;;;22.42;14.10;;;24.30;92.20;;;;;;5030383;28;20033;-75
2021/08/05 12:40:40;;;;;;;13.95;11.30;;;24.20;92.30;;;;;;5030441;28;20511;-74